Terminal Aerodrome Forecast
Issued by NWS

Home | Current Version | Previous Version | Text Only | Print | Product List | Glossary On
Versions: 1 2 3 4 5 6 7 8 9 10 11 12 13 14 15 16 17 18 19 20 21 22 23
430
FTUS42 KMHX 311147
TAFOAJ
TAF
KOAJ 311147Z 3112/0112 04006KT 4SM BR OVC004
     FM311500 06006KT P6SM VCSH OVC025
     FM311700 06008KT 5SM SHRA OVC025
     FM010000 07005KT P6SM VCSH OVC050
     FM010600 VRB04KT 3SM SHRA BR OVC005
      AMD LTD TO CLD VIS AND WIND=

USA.gov is the U.S. government's official web portal to all federal, state and local government web resources and services.